sensor_id;sensor_type;location;lat;lon;timestamp;P1;durP1;ratioP1;P2;durP2;ratioP2
16254;SDS011;8235;52.198;9.904;2022-09-21T00:01:57;2.80;;;2.03;;
16254;SDS011;8235;52.198;9.904;2022-09-21T00:04:23;2.93;;;1.90;;
16254;SDS011;8235;52.198;9.904;2022-09-21T00:06:50;4.30;;;2.07;;
16254;SDS011;8235;52.198;9.904;2022-09-21T00:09:16;4.17;;;1.90;;
16254;SDS011;8235;52.198;9.904;2022-09-21T00:11:43;5.07;;;2.20;;
16254;SDS011;8235;52.198;9.904;2022-09-21T00:14:10;3.47;;;2.10;;
16254;SDS011;8235;52.198;9.904;2022-09-21T00:16:39;6.17;;;2.10;;
16254;SDS011;8235;52.198;9.904;2022-09-21T00:19:07;5.10;;;1.90;;
16254;SDS011;8235;52.198;9.904;2022-09-21T00:21:33;3.50;;;2.07;;
16254;SDS011;8235;52.198;9.904;2022-09-21T00:24:02;2.67;;;1.90;;
16254;SDS011;8235;52.198;9.904;2022-09-21T00:26:29;3.27;;;2.00;;
16254;SDS011;8235;52.198;9.904;2022-09-21T00:28:56;2.80;;;1.70;;
16254;SDS011;8235;52.198;9.904;2022-09-21T00:31:24;3.33;;;2.13;;
16254;SDS011;8235;52.198;9.904;2022-09-21T00:33:54;3.60;;;2.47;;
16254;SDS011;8235;52.198;9.904;2022-09-21T00:36:21;3.63;;;2.30;;
16254;SDS011;8235;52.198;9.904;2022-09-21T00:38:50;4.90;;;1.93;;
16254;SDS011;8235;52.198;9.904;2022-09-21T00:41:18;3.03;;;2.30;;
16254;SDS011;8235;52.198;9.904;2022-09-21T00:43:46;6.60;;;2.20;;
16254;SDS011;8235;52.198;9.904;2022-09-21T00:46:33;4.63;;;1.87;;
16254;SDS011;8235;52.198;9.904;2022-09-21T00:49:06;9.00;;;2.23;;
16254;SDS011;8235;52.198;9.904;2022-09-21T00:51:34;3.53;;;2.27;;
16254;SDS011;8235;52.198;9.904;2022-09-21T00:54:01;5.27;;;2.27;;
16254;SDS011;8235;52.198;9.904;2022-09-21T00:56:32;4.53;;;2.10;;
16254;SDS011;8235;52.198;9.904;2022-09-21T00:59:01;4.17;;;2.17;;
16254;SDS011;8235;52.198;9.904;2022-09-21T01:01:29;4.70;;;2.20;;
16254;SDS011;8235;52.198;9.904;2022-09-21T01:03:55;7.57;;;2.70;;
16254;SDS011;8235;52.198;9.904;2022-09-21T01:06:23;3.60;;;2.23;;
16254;SDS011;8235;52.198;9.904;2022-09-21T01:08:51;3.60;;;2.40;;
16254;SDS011;8235;52.198;9.904;2022-09-21T01:11:28;5.73;;;2.10;;
16254;SDS011;8235;52.198;9.904;2022-09-21T01:14:04;3.10;;;2.17;;
16254;SDS011;8235;52.198;9.904;2022-09-21T01:16:42;2.70;;;2.30;;
16254;SDS011;8235;52.198;9.904;2022-09-21T01:19:17;6.60;;;2.20;;
16254;SDS011;8235;52.198;9.904;2022-09-21T01:22:02;2.73;;;2.00;;
16254;SDS011;8235;52.198;9.904;2022-09-21T01:24:39;2.67;;;1.97;;
16254;SDS011;8235;52.198;9.904;2022-09-21T01:27:22;3.57;;;2.30;;
16254;SDS011;8235;52.198;9.904;2022-09-21T01:29:59;3.37;;;2.10;;
16254;SDS011;8235;52.198;9.904;2022-09-21T01:32:30;3.67;;;2.27;;
16254;SDS011;8235;52.198;9.904;2022-09-21T01:35:01;3.97;;;2.47;;
16254;SDS011;8235;52.198;9.904;2022-09-21T01:37:31;2.83;;;2.20;;
16254;SDS011;8235;52.198;9.904;2022-09-21T01:40:04;4.80;;;2.07;;
16254;SDS011;8235;52.198;9.904;2022-09-21T01:42:35;5.00;;;2.20;;
16254;SDS011;8235;52.198;9.904;2022-09-21T01:45:06;3.13;;;2.10;;
16254;SDS011;8235;52.198;9.904;2022-09-21T01:47:36;3.07;;;2.20;;
16254;SDS011;8235;52.198;9.904;2022-09-21T01:50:07;3.90;;;2.03;;
16254;SDS011;8235;52.198;9.904;2022-09-21T01:52:36;2.67;;;2.20;;
16254;SDS011;8235;52.198;9.904;2022-09-21T01:55:08;3.77;;;2.47;;
16254;SDS011;8235;52.198;9.904;2022-09-21T01:57:39;2.13;;;1.77;;
16254;SDS011;8235;52.198;9.904;2022-09-21T02:00:13;3.40;;;1.77;;
16254;SDS011;8235;52.198;9.904;2022-09-21T02:02:43;1.73;;;1.43;;
16254;SDS011;8235;52.198;9.904;2022-09-21T02:05:14;1.50;;;1.10;;
16254;SDS011;8235;52.198;9.904;2022-09-21T02:07:44;1.43;;;0.60;;
16254;SDS011;8235;52.198;9.904;2022-09-21T02:10:12;1.20;;;0.73;;
16254;SDS011;8235;52.198;9.904;2022-09-21T02:12:43;1.40;;;0.90;;
16254;SDS011;8235;52.198;9.904;2022-09-21T02:15:10;1.67;;;1.10;;
16254;SDS011;8235;52.198;9.904;2022-09-21T02:17:39;1.50;;;1.33;;
16254;SDS011;8235;52.198;9.904;2022-09-21T02:20:15;3.93;;;1.23;;
16254;SDS011;8235;52.198;9.904;2022-09-21T02:22:48;4.07;;;2.00;;
16254;SDS011;8235;52.198;9.904;2022-09-21T02:25:31;4.07;;;2.20;;
16254;SDS011;8235;52.198;9.904;2022-09-21T02:28:06;4.70;;;2.30;;
16254;SDS011;8235;52.198;9.904;2022-09-21T02:30:36;3.93;;;2.60;;
16254;SDS011;8235;52.198;9.904;2022-09-21T02:33:07;4.33;;;2.73;;
16254;SDS011;8235;52.198;9.904;2022-09-21T02:35:39;2.90;;;2.40;;
16254;SDS011;8235;52.198;9.904;2022-09-21T02:38:10;3.13;;;2.53;;
16254;SDS011;8235;52.198;9.904;2022-09-21T02:40:45;3.90;;;2.67;;
16254;SDS011;8235;52.198;9.904;2022-09-21T02:43:18;6.40;;;3.10;;
16254;SDS011;8235;52.198;9.904;2022-09-21T02:45:49;3.40;;;2.70;;
16254;SDS011;8235;52.198;9.904;2022-09-21T02:48:20;5.80;;;3.00;;
16254;SDS011;8235;52.198;9.904;2022-09-21T02:50:53;3.07;;;2.70;;
16254;SDS011;8235;52.198;9.904;2022-09-21T02:53:23;3.53;;;2.87;;
16254;SDS011;8235;52.198;9.904;2022-09-21T02:55:52;3.77;;;2.70;;
16254;SDS011;8235;52.198;9.904;2022-09-21T02:58:21;5.47;;;2.80;;
16254;SDS011;8235;52.198;9.904;2022-09-21T03:00:51;3.30;;;2.50;;
16254;SDS011;8235;52.198;9.904;2022-09-21T03:03:22;5.30;;;2.53;;
16254;SDS011;8235;52.198;9.904;2022-09-21T03:05:51;2.93;;;2.60;;
16254;SDS011;8235;52.198;9.904;2022-09-21T03:08:19;4.57;;;2.60;;
16254;SDS011;8235;52.198;9.904;2022-09-21T03:10:46;3.23;;;2.57;;
16254;SDS011;8235;52.198;9.904;2022-09-21T03:13:14;4.27;;;2.27;;
16254;SDS011;8235;52.198;9.904;2022-09-21T03:15:40;6.93;;;3.20;;
16254;SDS011;8235;52.198;9.904;2022-09-21T03:18:07;3.77;;;2.80;;
16254;SDS011;8235;52.198;9.904;2022-09-21T03:20:37;2.83;;;2.57;;
16254;SDS011;8235;52.198;9.904;2022-09-21T03:23:04;4.03;;;2.63;;
16254;SDS011;8235;52.198;9.904;2022-09-21T03:25:31;4.20;;;3.10;;
16254;SDS011;8235;52.198;9.904;2022-09-21T03:27:58;7.33;;;3.23;;
16254;SDS011;8235;52.198;9.904;2022-09-21T03:30:25;5.00;;;2.80;;
16254;SDS011;8235;52.198;9.904;2022-09-21T03:32:53;4.67;;;2.97;;
16254;SDS011;8235;52.198;9.904;2022-09-21T03:35:21;7.57;;;3.43;;
16254;SDS011;8235;52.198;9.904;2022-09-21T03:37:50;3.37;;;2.40;;
16254;SDS011;8235;52.198;9.904;2022-09-21T03:40:19;4.77;;;2.57;;
16254;SDS011;8235;52.198;9.904;2022-09-21T03:42:46;2.10;;;1.90;;
16254;SDS011;8235;52.198;9.904;2022-09-21T03:45:12;3.97;;;2.10;;
16254;SDS011;8235;52.198;9.904;2022-09-21T03:47:39;4.83;;;2.27;;
16254;SDS011;8235;52.198;9.904;2022-09-21T03:50:06;4.63;;;2.13;;
16254;SDS011;8235;52.198;9.904;2022-09-21T03:52:33;2.67;;;1.90;;
16254;SDS011;8235;52.198;9.904;2022-09-21T03:55:03;2.53;;;1.97;;
16254;SDS011;8235;52.198;9.904;2022-09-21T03:57:31;3.67;;;2.50;;
16254;SDS011;8235;52.198;9.904;2022-09-21T03:59:58;6.43;;;2.87;;
16254;SDS011;8235;52.198;9.904;2022-09-21T04:02:26;3.63;;;2.77;;
16254;SDS011;8235;52.198;9.904;2022-09-21T04:04:53;5.50;;;2.90;;
16254;SDS011;8235;52.198;9.904;2022-09-21T04:07:19;4.80;;;3.00;;
16254;SDS011;8235;52.198;9.904;2022-09-21T04:09:46;5.43;;;2.90;;
16254;SDS011;8235;52.198;9.904;2022-09-21T04:12:14;4.97;;;3.00;;
16254;SDS011;8235;52.198;9.904;2022-09-21T04:14:40;4.63;;;3.47;;
16254;SDS011;8235;52.198;9.904;2022-09-21T04:17:07;4.53;;;3.00;;
16254;SDS011;8235;52.198;9.904;2022-09-21T04:19:33;3.57;;;2.30;;
16254;SDS011;8235;52.198;9.904;2022-09-21T04:22:00;2.57;;;2.03;;
16254;SDS011;8235;52.198;9.904;2022-09-21T04:24:26;4.43;;;2.00;;
16254;SDS011;8235;52.198;9.904;2022-09-21T04:26:53;1.97;;;1.70;;
16254;SDS011;8235;52.198;9.904;2022-09-21T04:29:20;5.37;;;2.30;;
16254;SDS011;8235;52.198;9.904;2022-09-21T04:31:47;3.60;;;2.43;;
16254;SDS011;8235;52.198;9.904;2022-09-21T04:34:13;3.73;;;2.37;;
16254;SDS011;8235;52.198;9.904;2022-09-21T04:36:40;4.23;;;2.50;;
16254;SDS011;8235;52.198;9.904;2022-09-21T04:39:07;2.77;;;2.30;;
16254;SDS011;8235;52.198;9.904;2022-09-21T04:41:34;4.63;;;2.50;;
16254;SDS011;8235;52.198;9.904;2022-09-21T04:44:00;3.07;;;2.50;;
16254;SDS011;8235;52.198;9.904;2022-09-21T04:46:28;6.40;;;2.90;;
16254;SDS011;8235;52.198;9.904;2022-09-21T04:48:55;4.50;;;2.37;;
16254;SDS011;8235;52.198;9.904;2022-09-21T04:51:22;4.40;;;2.80;;
16254;SDS011;8235;52.198;9.904;2022-09-21T04:53:48;3.33;;;2.67;;
16254;SDS011;8235;52.198;9.904;2022-09-21T04:56:15;3.53;;;2.10;;
16254;SDS011;8235;52.198;9.904;2022-09-21T04:58:42;3.13;;;2.33;;
16254;SDS011;8235;52.198;9.904;2022-09-21T05:01:09;5.23;;;2.13;;
16254;SDS011;8235;52.198;9.904;2022-09-21T05:03:37;4.03;;;2.10;;
16254;SDS011;8235;52.198;9.904;2022-09-21T05:06:04;3.37;;;2.23;;
16254;SDS011;8235;52.198;9.904;2022-09-21T05:08:31;3.50;;;2.80;;
16254;SDS011;8235;52.198;9.904;2022-09-21T05:11:21;3.07;;;2.60;;
16254;SDS011;8235;52.198;9.904;2022-09-21T05:13:48;2.93;;;2.33;;
16254;SDS011;8235;52.198;9.904;2022-09-21T05:16:16;5.20;;;2.80;;
16254;SDS011;8235;52.198;9.904;2022-09-21T05:18:51;5.07;;;3.30;;
16254;SDS011;8235;52.198;9.904;2022-09-21T05:21:19;7.33;;;3.03;;
16254;SDS011;8235;52.198;9.904;2022-09-21T05:23:45;6.07;;;3.73;;
16254;SDS011;8235;52.198;9.904;2022-09-21T05:26:12;6.50;;;3.37;;
16254;SDS011;8235;52.198;9.904;2022-09-21T05:28:39;5.43;;;3.50;;
16254;SDS011;8235;52.198;9.904;2022-09-21T05:31:10;5.10;;;3.17;;
16254;SDS011;8235;52.198;9.904;2022-09-21T05:33:53;4.63;;;3.27;;
16254;SDS011;8235;52.198;9.904;2022-09-21T05:36:26;4.70;;;3.53;;
16254;SDS011;8235;52.198;9.904;2022-09-21T05:39:02;6.53;;;4.30;;
16254;SDS011;8235;52.198;9.904;2022-09-21T05:41:29;5.67;;;3.70;;
16254;SDS011;8235;52.198;9.904;2022-09-21T05:43:56;4.80;;;3.33;;
16254;SDS011;8235;52.198;9.904;2022-09-21T05:46:28;4.93;;;3.63;;
16254;SDS011;8235;52.198;9.904;2022-09-21T05:49:04;3.47;;;3.17;;
16254;SDS011;8235;52.198;9.904;2022-09-21T05:51:40;4.67;;;3.40;;
16254;SDS011;8235;52.198;9.904;2022-09-21T05:54:18;4.57;;;3.27;;
16254;SDS011;8235;52.198;9.904;2022-09-21T05:56:57;5.43;;;3.07;;
16254;SDS011;8235;52.198;9.904;2022-09-21T05:59:36;4.63;;;3.37;;
16254;SDS011;8235;52.198;9.904;2022-09-21T06:02:13;3.90;;;3.50;;
16254;SDS011;8235;52.198;9.904;2022-09-21T06:04:49;4.53;;;3.50;;
16254;SDS011;8235;52.198;9.904;2022-09-21T06:07:18;4.77;;;3.33;;
16254;SDS011;8235;52.198;9.904;2022-09-21T06:09:44;5.33;;;4.10;;
16254;SDS011;8235;52.198;9.904;2022-09-21T06:12:11;12.60;;;7.83;;
16254;SDS011;8235;52.198;9.904;2022-09-21T06:14:37;15.57;;;9.50;;
16254;SDS011;8235;52.198;9.904;2022-09-21T06:17:04;19.93;;;11.37;;
16254;SDS011;8235;52.198;9.904;2022-09-21T06:19:30;9.93;;;8.03;;
16254;SDS011;8235;52.198;9.904;2022-09-21T06:21:58;7.67;;;5.73;;
16254;SDS011;8235;52.198;9.904;2022-09-21T06:24:24;7.00;;;4.60;;
16254;SDS011;8235;52.198;9.904;2022-09-21T06:26:51;7.77;;;4.97;;
16254;SDS011;8235;52.198;9.904;2022-09-21T06:29:18;6.23;;;4.73;;
16254;SDS011;8235;52.198;9.904;2022-09-21T06:31:47;7.80;;;4.23;;
16254;SDS011;8235;52.198;9.904;2022-09-21T06:34:14;8.73;;;4.80;;
16254;SDS011;8235;52.198;9.904;2022-09-21T06:36:40;9.13;;;6.10;;
16254;SDS011;8235;52.198;9.904;2022-09-21T06:39:08;6.57;;;4.70;;
16254;SDS011;8235;52.198;9.904;2022-09-21T06:41:35;7.40;;;4.97;;
16254;SDS011;8235;52.198;9.904;2022-09-21T06:44:01;5.53;;;4.83;;
16254;SDS011;8235;52.198;9.904;2022-09-21T06:46:28;7.13;;;4.37;;
16254;SDS011;8235;52.198;9.904;2022-09-21T06:48:54;6.70;;;4.73;;
16254;SDS011;8235;52.198;9.904;2022-09-21T06:51:21;8.43;;;5.63;;
16254;SDS011;8235;52.198;9.904;2022-09-21T06:53:48;7.20;;;5.00;;
16254;SDS011;8235;52.198;9.904;2022-09-21T06:56:15;6.40;;;4.67;;
16254;SDS011;8235;52.198;9.904;2022-09-21T06:58:42;7.73;;;5.23;;
16254;SDS011;8235;52.198;9.904;2022-09-21T07:01:11;9.03;;;5.00;;
16254;SDS011;8235;52.198;9.904;2022-09-21T07:03:39;7.70;;;5.40;;
16254;SDS011;8235;52.198;9.904;2022-09-21T07:06:07;8.40;;;6.50;;
16254;SDS011;8235;52.198;9.904;2022-09-21T07:08:35;8.47;;;6.03;;
16254;SDS011;8235;52.198;9.904;2022-09-21T07:11:04;8.47;;;6.53;;
16254;SDS011;8235;52.198;9.904;2022-09-21T07:13:32;8.97;;;5.20;;
16254;SDS011;8235;52.198;9.904;2022-09-21T07:16:01;7.47;;;5.43;;
16254;SDS011;8235;52.198;9.904;2022-09-21T07:18:29;21.57;;;7.70;;
16254;SDS011;8235;52.198;9.904;2022-09-21T07:20:56;15.00;;;7.13;;
16254;SDS011;8235;52.198;9.904;2022-09-21T07:23:23;13.50;;;6.50;;
16254;SDS011;8235;52.198;9.904;2022-09-21T07:25:49;12.97;;;5.77;;
16254;SDS011;8235;52.198;9.904;2022-09-21T07:28:16;7.60;;;5.53;;
16254;SDS011;8235;52.198;9.904;2022-09-21T07:30:45;7.20;;;5.17;;
16254;SDS011;8235;52.198;9.904;2022-09-21T07:33:11;7.23;;;5.50;;
16254;SDS011;8235;52.198;9.904;2022-09-21T07:35:38;11.43;;;5.80;;
16254;SDS011;8235;52.198;9.904;2022-09-21T07:38:05;9.37;;;5.80;;
16254;SDS011;8235;52.198;9.904;2022-09-21T07:40:32;10.10;;;6.00;;
16254;SDS011;8235;52.198;9.904;2022-09-21T07:43:00;8.67;;;5.23;;
16254;SDS011;8235;52.198;9.904;2022-09-21T07:45:27;7.27;;;5.87;;
16254;SDS011;8235;52.198;9.904;2022-09-21T07:47:57;8.77;;;5.53;;
16254;SDS011;8235;52.198;9.904;2022-09-21T07:50:27;6.37;;;4.10;;
16254;SDS011;8235;52.198;9.904;2022-09-21T07:52:53;6.33;;;4.50;;
16254;SDS011;8235;52.198;9.904;2022-09-21T07:55:20;5.57;;;3.90;;
16254;SDS011;8235;52.198;9.904;2022-09-21T07:57:48;7.43;;;4.47;;
16254;SDS011;8235;52.198;9.904;2022-09-21T08:00:47;9.60;;;6.63;;
16254;SDS011;8235;52.198;9.904;2022-09-21T08:03:14;7.50;;;4.60;;
16254;SDS011;8235;52.198;9.904;2022-09-21T08:05:41;7.70;;;4.40;;
16254;SDS011;8235;52.198;9.904;2022-09-21T08:08:07;8.97;;;4.00;;
16254;SDS011;8235;52.198;9.904;2022-09-21T08:10:34;4.93;;;3.70;;
16254;SDS011;8235;52.198;9.904;2022-09-21T08:13:01;9.23;;;3.60;;
16254;SDS011;8235;52.198;9.904;2022-09-21T08:15:28;4.53;;;3.20;;
16254;SDS011;8235;52.198;9.904;2022-09-21T08:17:54;5.23;;;2.33;;
16254;SDS011;8235;52.198;9.904;2022-09-21T08:20:23;5.27;;;2.93;;
16254;SDS011;8235;52.198;9.904;2022-09-21T08:22:50;7.27;;;3.17;;
16254;SDS011;8235;52.198;9.904;2022-09-21T08:25:17;6.43;;;2.73;;
16254;SDS011;8235;52.198;9.904;2022-09-21T08:27:44;5.37;;;2.60;;
16254;SDS011;8235;52.198;9.904;2022-09-21T08:30:13;6.87;;;2.90;;
16254;SDS011;8235;52.198;9.904;2022-09-21T08:32:39;5.23;;;2.33;;
16254;SDS011;8235;52.198;9.904;2022-09-21T08:35:07;9.00;;;2.70;;
16254;SDS011;8235;52.198;9.904;2022-09-21T08:37:35;5.50;;;2.53;;
16254;SDS011;8235;52.198;9.904;2022-09-21T08:40:02;7.20;;;3.60;;
16254;SDS011;8235;52.198;9.904;2022-09-21T08:42:34;6.73;;;3.30;;
16254;SDS011;8235;52.198;9.904;2022-09-21T08:45:09;9.07;;;2.57;;
16254;SDS011;8235;52.198;9.904;2022-09-21T08:47:41;6.30;;;3.63;;
16254;SDS011;8235;52.198;9.904;2022-09-21T08:52:59;7.50;;;2.90;;
16254;SDS011;8235;52.198;9.904;2022-09-21T08:55:29;5.80;;;3.57;;
16254;SDS011;8235;52.198;9.904;2022-09-21T08:57:55;6.17;;;3.80;;
16254;SDS011;8235;52.198;9.904;2022-09-21T09:00:24;8.87;;;3.57;;
16254;SDS011;8235;52.198;9.904;2022-09-21T09:02:56;7.37;;;3.07;;
16254;SDS011;8235;52.198;9.904;2022-09-21T09:05:39;3.67;;;1.90;;
16254;SDS011;8235;52.198;9.904;2022-09-21T09:08:25;6.80;;;2.87;;
16254;SDS011;8235;52.198;9.904;2022-09-21T09:11:13;6.90;;;3.07;;
16254;SDS011;8235;52.198;9.904;2022-09-21T09:13:53;5.10;;;2.70;;
16254;SDS011;8235;52.198;9.904;2022-09-21T09:16:35;4.23;;;2.60;;
16254;SDS011;8235;52.198;9.904;2022-09-21T09:19:10;7.30;;;3.33;;
16254;SDS011;8235;52.198;9.904;2022-09-21T09:21:45;6.80;;;3.07;;
16254;SDS011;8235;52.198;9.904;2022-09-21T09:24:15;5.87;;;3.60;;
16254;SDS011;8235;52.198;9.904;2022-09-21T09:26:58;7.60;;;3.50;;
16254;SDS011;8235;52.198;9.904;2022-09-21T09:29:30;5.67;;;3.60;;
16254;SDS011;8235;52.198;9.904;2022-09-21T09:32:03;7.97;;;3.50;;
16254;SDS011;8235;52.198;9.904;2022-09-21T09:34:37;5.87;;;2.80;;
16254;SDS011;8235;52.198;9.904;2022-09-21T09:37:09;6.17;;;2.97;;
16254;SDS011;8235;52.198;9.904;2022-09-21T09:39:38;8.57;;;3.20;;
16254;SDS011;8235;52.198;9.904;2022-09-21T09:42:18;7.50;;;3.80;;
16254;SDS011;8235;52.198;9.904;2022-09-21T09:45:15;6.60;;;2.47;;
16254;SDS011;8235;52.198;9.904;2022-09-21T09:48:06;12.67;;;3.90;;
16254;SDS011;8235;52.198;9.904;2022-09-21T09:50:44;4.43;;;2.23;;
16254;SDS011;8235;52.198;9.904;2022-09-21T09:53:12;6.60;;;1.90;;
16254;SDS011;8235;52.198;9.904;2022-09-21T09:55:43;7.77;;;3.23;;
16254;SDS011;8235;52.198;9.904;2022-09-21T09:58:15;6.50;;;2.93;;
16254;SDS011;8235;52.198;9.904;2022-09-21T10:00:44;7.20;;;2.27;;
16254;SDS011;8235;52.198;9.904;2022-09-21T10:03:14;5.87;;;2.47;;
16254;SDS011;8235;52.198;9.904;2022-09-21T10:05:43;5.93;;;2.03;;
16254;SDS011;8235;52.198;9.904;2022-09-21T10:08:30;7.97;;;2.63;;
16254;SDS011;8235;52.198;9.904;2022-09-21T10:11:08;6.67;;;2.73;;
16254;SDS011;8235;52.198;9.904;2022-09-21T10:13:36;5.77;;;2.10;;
16254;SDS011;8235;52.198;9.904;2022-09-21T10:16:04;4.90;;;1.90;;
16254;SDS011;8235;52.198;9.904;2022-09-21T10:18:37;6.73;;;2.00;;
16254;SDS011;8235;52.198;9.904;2022-09-21T10:21:06;7.77;;;1.73;;
16254;SDS011;8235;52.198;9.904;2022-09-21T10:23:35;5.23;;;1.60;;
16254;SDS011;8235;52.198;9.904;2022-09-21T10:26:04;4.70;;;1.73;;
16254;SDS011;8235;52.198;9.904;2022-09-21T10:28:35;6.53;;;1.60;;
16254;SDS011;8235;52.198;9.904;2022-09-21T10:31:09;7.60;;;1.70;;
16254;SDS011;8235;52.198;9.904;2022-09-21T10:33:45;4.53;;;1.60;;
16254;SDS011;8235;52.198;9.904;2022-09-21T10:36:28;5.80;;;0.93;;
16254;SDS011;8235;52.198;9.904;2022-09-21T10:39:09;2.97;;;0.83;;
16254;SDS011;8235;52.198;9.904;2022-09-21T10:41:49;3.97;;;1.07;;
16254;SDS011;8235;52.198;9.904;2022-09-21T10:44:20;4.93;;;1.60;;
16254;SDS011;8235;52.198;9.904;2022-09-21T10:46:49;5.67;;;1.10;;
16254;SDS011;8235;52.198;9.904;2022-09-21T10:49:18;3.10;;;1.00;;
16254;SDS011;8235;52.198;9.904;2022-09-21T10:51:47;2.23;;;0.97;;
16254;SDS011;8235;52.198;9.904;2022-09-21T10:54:17;4.23;;;1.40;;
16254;SDS011;8235;52.198;9.904;2022-09-21T10:56:51;2.80;;;0.97;;
16254;SDS011;8235;52.198;9.904;2022-09-21T10:59:23;2.13;;;0.90;;
16254;SDS011;8235;52.198;9.904;2022-09-21T11:01:52;3.97;;;1.10;;
16254;SDS011;8235;52.198;9.904;2022-09-21T11:04:22;2.93;;;0.87;;
16254;SDS011;8235;52.198;9.904;2022-09-21T11:06:57;5.17;;;1.00;;
16254;SDS011;8235;52.198;9.904;2022-09-21T11:09:31;3.50;;;1.50;;
16254;SDS011;8235;52.198;9.904;2022-09-21T11:12:05;3.53;;;1.07;;
16254;SDS011;8235;52.198;9.904;2022-09-21T11:14:44;4.80;;;1.07;;
16254;SDS011;8235;52.198;9.904;2022-09-21T11:17:19;4.37;;;1.10;;
16254;SDS011;8235;52.198;9.904;2022-09-21T11:19:53;1.67;;;0.70;;
16254;SDS011;8235;52.198;9.904;2022-09-21T11:22:29;4.73;;;1.03;;
16254;SDS011;8235;52.198;9.904;2022-09-21T11:25:03;3.60;;;0.90;;
16254;SDS011;8235;52.198;9.904;2022-09-21T11:27:50;3.50;;;0.93;;
16254;SDS011;8235;52.198;9.904;2022-09-21T11:30:22;2.33;;;1.00;;
16254;SDS011;8235;52.198;9.904;2022-09-21T11:32:54;4.70;;;1.40;;
16254;SDS011;8235;52.198;9.904;2022-09-21T11:35:34;3.93;;;0.90;;
16254;SDS011;8235;52.198;9.904;2022-09-21T11:38:10;1.90;;;0.80;;
16254;SDS011;8235;52.198;9.904;2022-09-21T11:40:45;2.57;;;0.90;;
16254;SDS011;8235;52.198;9.904;2022-09-21T11:43:32;4.63;;;0.93;;
16254;SDS011;8235;52.198;9.904;2022-09-21T11:46:16;1.70;;;0.63;;
16254;SDS011;8235;52.198;9.904;2022-09-21T11:48:59;2.13;;;0.70;;
16254;SDS011;8235;52.198;9.904;2022-09-21T11:51:42;4.23;;;0.93;;
16254;SDS011;8235;52.198;9.904;2022-09-21T11:54:24;3.43;;;1.00;;
16254;SDS011;8235;52.198;9.904;2022-09-21T11:57:05;4.17;;;0.97;;
16254;SDS011;8235;52.198;9.904;2022-09-21T11:59:46;5.93;;;1.13;;
16254;SDS011;8235;52.198;9.904;2022-09-21T12:05:33;2.60;;;0.63;;
16254;SDS011;8235;52.198;9.904;2022-09-21T12:08:11;3.83;;;1.07;;
16254;SDS011;8235;52.198;9.904;2022-09-21T12:10:52;4.50;;;1.00;;
16254;SDS011;8235;52.198;9.904;2022-09-21T12:13:27;2.50;;;0.60;;
16254;SDS011;8235;52.198;9.904;2022-09-21T12:16:05;2.63;;;0.50;;
16254;SDS011;8235;52.198;9.904;2022-09-21T12:18:42;3.90;;;1.00;;
16254;SDS011;8235;52.198;9.904;2022-09-21T12:21:15;4.60;;;0.83;;
16254;SDS011;8235;52.198;9.904;2022-09-21T12:23:45;2.43;;;0.53;;
16254;SDS011;8235;52.198;9.904;2022-09-21T12:26:16;2.30;;;0.60;;
16254;SDS011;8235;52.198;9.904;2022-09-21T12:28:47;2.37;;;0.50;;
16254;SDS011;8235;52.198;9.904;2022-09-21T12:31:18;2.90;;;0.77;;
16254;SDS011;8235;52.198;9.904;2022-09-21T12:33:50;2.93;;;1.00;;
16254;SDS011;8235;52.198;9.904;2022-09-21T12:36:19;2.60;;;0.70;;
16254;SDS011;8235;52.198;9.904;2022-09-21T12:38:51;2.50;;;0.83;;
16254;SDS011;8235;52.198;9.904;2022-09-21T12:41:36;4.07;;;0.90;;
16254;SDS011;8235;52.198;9.904;2022-09-21T12:44:13;3.67;;;0.73;;
16254;SDS011;8235;52.198;9.904;2022-09-21T12:46:45;2.00;;;0.40;;
16254;SDS011;8235;52.198;9.904;2022-09-21T12:49:18;2.60;;;0.60;;
16254;SDS011;8235;52.198;9.904;2022-09-21T12:51:47;2.90;;;0.60;;
16254;SDS011;8235;52.198;9.904;2022-09-21T12:54:22;2.07;;;0.60;;
16254;SDS011;8235;52.198;9.904;2022-09-21T12:56:55;1.27;;;0.50;;
16254;SDS011;8235;52.198;9.904;2022-09-21T12:59:30;2.03;;;0.60;;
16254;SDS011;8235;52.198;9.904;2022-09-21T13:02:06;2.33;;;0.70;;
16254;SDS011;8235;52.198;9.904;2022-09-21T13:04:50;4.33;;;1.40;;
16254;SDS011;8235;52.198;9.904;2022-09-21T13:10:29;4.93;;;1.10;;
16254;SDS011;8235;52.198;9.904;2022-09-21T13:13:05;3.63;;;0.83;;
16254;SDS011;8235;52.198;9.904;2022-09-21T13:15:39;4.10;;;1.27;;
16254;SDS011;8235;52.198;9.904;2022-09-21T13:18:14;1.47;;;0.60;;
16254;SDS011;8235;52.198;9.904;2022-09-21T13:20:44;2.83;;;0.83;;
16254;SDS011;8235;52.198;9.904;2022-09-21T13:23:13;3.63;;;0.93;;
16254;SDS011;8235;52.198;9.904;2022-09-21T13:25:41;2.60;;;0.80;;
16254;SDS011;8235;52.198;9.904;2022-09-21T13:28:18;2.83;;;0.80;;
16254;SDS011;8235;52.198;9.904;2022-09-21T13:30:48;4.83;;;0.80;;
16254;SDS011;8235;52.198;9.904;2022-09-21T13:33:38;2.47;;;0.70;;
16254;SDS011;8235;52.198;9.904;2022-09-21T13:39:15;1.67;;;0.60;;
16254;SDS011;8235;52.198;9.904;2022-09-21T13:41:44;1.87;;;0.67;;
16254;SDS011;8235;52.198;9.904;2022-09-21T13:44:18;2.47;;;0.50;;
16254;SDS011;8235;52.198;9.904;2022-09-21T13:46:51;3.57;;;0.80;;
16254;SDS011;8235;52.198;9.904;2022-09-21T13:49:21;2.80;;;0.80;;
16254;SDS011;8235;52.198;9.904;2022-09-21T13:51:56;4.03;;;0.80;;
16254;SDS011;8235;52.198;9.904;2022-09-21T13:54:25;1.47;;;0.43;;
16254;SDS011;8235;52.198;9.904;2022-09-21T13:56:59;2.03;;;0.50;;
16254;SDS011;8235;52.198;9.904;2022-09-21T13:59:33;2.33;;;0.50;;
16254;SDS011;8235;52.198;9.904;2022-09-21T14:02:02;4.00;;;0.60;;
16254;SDS011;8235;52.198;9.904;2022-09-21T14:04:47;2.23;;;0.60;;
16254;SDS011;8235;52.198;9.904;2022-09-21T14:07:17;3.47;;;0.70;;
16254;SDS011;8235;52.198;9.904;2022-09-21T14:09:51;2.83;;;0.70;;
16254;SDS011;8235;52.198;9.904;2022-09-21T14:12:20;1.73;;;0.60;;
16254;SDS011;8235;52.198;9.904;2022-09-21T14:18:07;1.87;;;0.43;;
16254;SDS011;8235;52.198;9.904;2022-09-21T14:21:06;2.87;;;0.70;;
16254;SDS011;8235;52.198;9.904;2022-09-21T14:23:35;3.17;;;0.80;;
16254;SDS011;8235;52.198;9.904;2022-09-21T14:26:18;2.30;;;0.47;;
16254;SDS011;8235;52.198;9.904;2022-09-21T14:28:47;2.53;;;0.60;;
16254;SDS011;8235;52.198;9.904;2022-09-21T14:31:19;2.87;;;0.50;;
16254;SDS011;8235;52.198;9.904;2022-09-21T14:33:57;2.57;;;0.50;;
16254;SDS011;8235;52.198;9.904;2022-09-21T14:36:30;2.30;;;0.50;;
16254;SDS011;8235;52.198;9.904;2022-09-21T14:39:12;1.17;;;0.40;;
16254;SDS011;8235;52.198;9.904;2022-09-21T14:41:42;2.37;;;0.37;;
16254;SDS011;8235;52.198;9.904;2022-09-21T14:44:16;1.93;;;0.50;;
16254;SDS011;8235;52.198;9.904;2022-09-21T14:46:48;2.10;;;0.57;;
16254;SDS011;8235;52.198;9.904;2022-09-21T14:49:28;1.23;;;0.40;;
16254;SDS011;8235;52.198;9.904;2022-09-21T14:52:07;1.97;;;0.50;;
16254;SDS011;8235;52.198;9.904;2022-09-21T14:54:46;3.47;;;0.60;;
16254;SDS011;8235;52.198;9.904;2022-09-21T14:57:28;2.43;;;0.50;;
16254;SDS011;8235;52.198;9.904;2022-09-21T15:00:12;1.70;;;0.53;;
16254;SDS011;8235;52.198;9.904;2022-09-21T15:02:45;4.40;;;0.67;;
16254;SDS011;8235;52.198;9.904;2022-09-21T15:05:17;2.90;;;0.60;;
16254;SDS011;8235;52.198;9.904;2022-09-21T15:07:51;2.23;;;0.40;;
16254;SDS011;8235;52.198;9.904;2022-09-21T15:10:52;1.60;;;0.60;;
16254;SDS011;8235;52.198;9.904;2022-09-21T15:13:30;2.70;;;0.80;;
16254;SDS011;8235;52.198;9.904;2022-09-21T15:16:22;1.63;;;0.30;;
16254;SDS011;8235;52.198;9.904;2022-09-21T15:18:59;4.40;;;0.70;;
16254;SDS011;8235;52.198;9.904;2022-09-21T15:21:30;2.00;;;0.57;;
16254;SDS011;8235;52.198;9.904;2022-09-21T15:23:58;2.93;;;1.00;;
16254;SDS011;8235;52.198;9.904;2022-09-21T15:26:37;2.93;;;0.47;;
16254;SDS011;8235;52.198;9.904;2022-09-21T15:29:04;1.50;;;0.53;;
16254;SDS011;8235;52.198;9.904;2022-09-21T15:31:33;3.60;;;1.20;;
16254;SDS011;8235;52.198;9.904;2022-09-21T15:34:02;2.87;;;0.77;;
16254;SDS011;8235;52.198;9.904;2022-09-21T15:36:30;2.43;;;0.97;;
16254;SDS011;8235;52.198;9.904;2022-09-21T15:39:02;2.90;;;0.90;;
16254;SDS011;8235;52.198;9.904;2022-09-21T15:41:37;2.20;;;0.50;;
16254;SDS011;8235;52.198;9.904;2022-09-21T15:44:11;4.07;;;0.70;;